Time;durP1;ratioP1;P1;durP2;ratioP2;P2;SDS_P1;SDS_P2;PMS_P1;PMS_P2;Temp;Humidity;BMP_temperature;BMP_pressure;BME280_temperature;BME280_humidity;BME280_pressure;Samples;Min_cycle;Max_cycle;Signal;HPM_P1;HPM_P2
2023/03/23 00:01:30;;;;;;;1.97;1.30;;;15.50;99.90;;;;;;5029263;28;20217;-74
2023/03/23 00:03:58;;;;;;;2.17;1.10;;;15.50;99.90;;;;;;5032631;28;21131;-74
2023/03/23 00:06:25;;;;;;;1.60;0.87;;;15.50;99.90;;;;;;5016560;28;20611;-74
2023/03/23 00:08:56;;;;;;;1.70;0.90;;;15.50;99.90;;;;;;5049097;28;21203;-74
2023/03/23 00:11:28;;;;;;;2.03;1.00;;;15.50;99.90;;;;;;5033921;28;20985;-75
2023/03/23 00:13:57;;;;;;;2.00;0.80;;;15.50;99.90;;;;;;5032757;28;20583;-75
2023/03/23 00:16:31;;;;;;;3.00;1.13;;;15.60;99.90;;;;;;5033872;28;20576;-74
2023/03/23 00:19:01;;;;;;;1.60;0.90;;;15.50;99.90;;;;;;5033871;28;20570;-75
2023/03/23 00:21:34;;;;;;;1.90;0.90;;;15.50;99.90;;;;;;5023923;28;20708;-76
2023/03/23 00:24:17;;;;;;;1.77;1.00;;;15.50;99.90;;;;;;5014708;28;20625;-74
2023/03/23 00:26:48;;;;;;;1.53;0.80;;;15.50;99.90;;;;;;5012743;28;20977;-74
2023/03/23 00:29:22;;;;;;;1.90;1.00;;;15.60;99.90;;;;;;5012654;28;20587;-75
2023/03/23 00:31:51;;;;;;;2.53;1.00;;;15.60;99.90;;;;;;4980250;28;20612;-74
2023/03/23 00:34:24;;;;;;;2.47;0.90;;;15.60;99.90;;;;;;5012768;28;20593;-75
2023/03/23 00:36:53;;;;;;;2.23;0.80;;;15.60;99.90;;;;;;4995824;28;20577;-75
2023/03/23 00:39:19;;;;;;;1.37;0.63;;;15.60;99.90;;;;;;5013861;28;20712;-75
2023/03/23 00:41:47;;;;;;;1.97;0.90;;;15.60;99.90;;;;;;5012078;28;20632;-75
2023/03/23 00:44:23;;;;;;;2.73;0.90;;;15.60;99.90;;;;;;5012386;28;20616;-75
2023/03/23 00:46:49;;;;;;;3.60;0.87;;;15.60;99.90;;;;;;5012769;28;20667;-74
2023/03/23 00:49:17;;;;;;;2.20;0.70;;;15.60;99.90;;;;;;4995463;28;20621;-74
2023/03/23 00:51:43;;;;;;;3.33;0.80;;;15.60;99.90;;;;;;5013413;28;20629;-75
2023/03/23 00:54:10;;;;;;;3.60;0.97;;;15.60;99.90;;;;;;4997188;28;20659;-74
2023/03/23 00:56:36;;;;;;;4.50;1.00;;;15.60;99.90;;;;;;5029215;28;20667;-75
2023/03/23 00:59:03;;;;;;;1.80;0.80;;;15.60;99.90;;;;;;5032936;28;20638;-75
2023/03/23 01:01:29;;;;;;;5.33;1.30;;;15.60;99.90;;;;;;5015755;28;20662;-75
2023/03/23 01:04:00;;;;;;;1.73;0.90;;;15.60;99.90;;;;;;5032254;28;20606;-75
2023/03/23 01:06:32;;;;;;;2.30;0.90;;;15.60;99.90;;;;;;5015450;28;20919;-75
2023/03/23 01:08:58;;;;;;;1.70;0.83;;;15.60;99.90;;;;;;5032328;28;20581;-75
2023/03/23 01:11:25;;;;;;;2.83;0.93;;;15.50;99.90;;;;;;5014309;28;20647;-74
2023/03/23 01:13:51;;;;;;;2.50;1.17;;;15.50;99.90;;;;;;5048906;28;20717;-74
2023/03/23 01:16:20;;;;;;;3.40;0.80;;;15.50;99.90;;;;;;5031556;28;20667;-74
2023/03/23 01:18:46;;;;;;;2.87;0.90;;;15.50;99.90;;;;;;5015210;28;20572;-74
2023/03/23 01:21:15;;;;;;;2.80;0.90;;;15.50;99.90;;;;;;5018314;28;20632;-74
2023/03/23 01:23:42;;;;;;;2.40;1.17;;;15.50;99.90;;;;;;5013115;28;20595;-75
2023/03/23 01:26:12;;;;;;;2.27;1.17;;;15.50;99.90;;;;;;5011936;28;20593;-74
2023/03/23 01:28:39;;;;;;;3.73;0.90;;;15.50;99.90;;;;;;5011256;28;20585;-74
2023/03/23 01:31:08;;;;;;;2.20;1.27;;;15.50;99.90;;;;;;4995364;28;20671;-74
2023/03/23 01:33:35;;;;;;;2.43;0.90;;;15.50;99.90;;;;;;5012537;28;20570;-74
2023/03/23 01:36:10;;;;;;;2.37;1.00;;;15.50;99.90;;;;;;5013493;28;20581;-75
2023/03/23 01:38:36;;;;;;;2.03;0.80;;;15.50;99.90;;;;;;5011749;28;20188;-75
2023/03/23 01:41:04;;;;;;;3.03;0.70;;;15.60;99.90;;;;;;4979169;28;20613;-75
2023/03/23 01:43:30;;;;;;;2.47;1.10;;;15.50;99.90;;;;;;4994622;28;20659;-76
2023/03/23 01:45:56;;;;;;;2.57;0.80;;;15.50;99.90;;;;;;4995138;28;20577;-75
2023/03/23 01:48:31;;;;;;;2.53;1.30;;;15.50;99.90;;;;;;5011426;28;20672;-75
2023/03/23 01:51:02;;;;;;;1.80;0.80;;;15.50;99.90;;;;;;4997655;28;20674;-75
2023/03/23 01:53:38;;;;;;;2.57;0.90;;;15.40;99.90;;;;;;5022890;28;20592;-75
2023/03/23 01:56:06;;;;;;;1.80;1.10;;;15.30;99.90;;;;;;4994409;28;20655;-75
2023/03/23 01:58:34;;;;;;;2.93;0.90;;;15.20;99.90;;;;;;5011077;28;20600;-75
2023/03/23 02:01:08;;;;;;;2.10;1.00;;;15.10;99.90;;;;;;4994181;28;20628;-75
2023/03/23 02:03:36;;;;;;;1.90;1.30;;;15.00;99.90;;;;;;4993815;28;20625;-75
2023/03/23 02:06:02;;;;;;;2.87;0.90;;;15.00;99.90;;;;;;5027217;28;20929;-74
2023/03/23 02:08:51;;;;;;;2.80;0.93;;;14.90;99.90;;;;;;4994709;28;20592;-74
2023/03/23 02:11:20;;;;;;;3.10;1.00;;;14.80;99.90;;;;;;4987684;28;21003;-74
2023/03/23 02:13:47;;;;;;;1.90;1.10;;;14.70;99.90;;;;;;4997947;28;20944;-74
2023/03/23 02:16:24;;;;;;;3.80;1.30;;;14.60;99.90;;;;;;5011162;28;20588;-74
2023/03/23 02:18:55;;;;;;;2.47;1.07;;;14.50;99.90;;;;;;5010289;28;20672;-74
2023/03/23 02:21:50;;;;;;;2.30;1.23;;;14.40;99.90;;;;;;4998506;28;20605;-74
2023/03/23 02:24:52;;;;;;;2.17;1.58;;;14.40;99.90;;;;;;4994238;28;20170;-75
2023/03/23 02:27:53;;;;;;;1.92;0.90;;;14.30;99.90;;;;;;4994657;28;20731;-74
2023/03/23 02:30:30;;;;;;;2.07;1.10;;;14.20;99.90;;;;;;5010310;28;20232;-74
2023/03/23 02:33:14;;;;;;;2.03;0.80;;;14.20;99.90;;;;;;5027294;28;20972;-74
2023/03/23 02:36:01;;;;;;;1.93;1.10;;;14.10;99.90;;;;;;5010670;28;20635;-74
2023/03/23 02:38:38;;;;;;;2.03;0.95;;;14.00;99.90;;;;;;5010522;28;20592;-74
2023/03/23 02:41:04;;;;;;;1.70;0.90;;;14.00;99.90;;;;;;5010151;28;20194;-74
2023/03/23 02:43:42;;;;;;;2.25;1.02;;;13.90;99.90;;;;;;5027100;28;20174;-74
2023/03/23 02:46:10;;;;;;;2.17;1.02;;;13.90;99.90;;;;;;5010854;28;20178;-75
2023/03/23 02:48:39;;;;;;;1.88;1.23;;;13.90;99.90;;;;;;5010192;28;20170;-74
2023/03/23 02:51:08;;;;;;;1.63;0.85;;;13.90;99.90;;;;;;4994923;28;20312;-74
2023/03/23 02:53:37;;;;;;;1.95;1.00;;;13.90;99.90;;;;;;5027268;28;20209;-74
2023/03/23 02:56:05;;;;;;;2.55;0.90;;;13.90;99.90;;;;;;5010011;28;20170;-75
2023/03/23 02:58:30;;;;;;;1.92;1.00;;;13.90;99.90;;;;;;5011272;28;20173;-74
2023/03/23 03:00:58;;;;;;;3.60;1.20;;;13.90;99.90;;;;;;5010030;28;20190;-75
2023/03/23 03:03:29;;;;;;;2.08;0.80;;;13.90;99.90;;;;;;4994357;28;20586;-74
2023/03/23 03:06:05;;;;;;;2.28;1.00;;;13.90;99.90;;;;;;5010112;28;20174;-75
2023/03/23 03:08:50;;;;;;;1.48;0.90;;;13.90;99.90;;;;;;5011082;28;20170;-74
2023/03/23 03:11:22;;;;;;;1.65;0.80;;;13.90;99.90;;;;;;5010007;28;20202;-74
2023/03/23 03:14:02;;;;;;;2.10;0.98;;;13.90;99.90;;;;;;5009767;28;20225;-74
2023/03/23 03:16:52;;;;;;;1.90;0.90;;;13.90;99.90;;;;;;4993722;28;20177;-74
2023/03/23 03:19:26;;;;;;;1.77;1.13;;;13.90;99.90;;;;;;5009537;28;20189;-75
2023/03/23 03:21:54;;;;;;;2.00;0.80;;;13.90;99.90;;;;;;5039651;28;20288;-74
2023/03/23 03:24:29;;;;;;;1.70;0.70;;;13.90;99.90;;;;;;5009817;28;20169;-74
2023/03/23 03:26:59;;;;;;;2.17;0.90;;;13.90;99.90;;;;;;4994604;28;20585;-75
2023/03/23 03:29:41;;;;;;;2.13;0.70;;;14.00;99.90;;;;;;5026706;28;21150;-74
2023/03/23 03:32:11;;;;;;;1.47;0.90;;;14.00;99.90;;;;;;4993528;28;21195;-75
2023/03/23 03:34:37;;;;;;;1.73;0.90;;;14.00;99.90;;;;;;5011737;28;20565;-74
2023/03/23 03:37:05;;;;;;;1.50;0.65;;;14.00;99.90;;;;;;5013884;28;21156;-75
2023/03/23 03:39:36;;;;;;;2.77;0.80;;;14.00;99.90;;;;;;5030034;28;20178;-75
2023/03/23 03:42:06;;;;;;;1.40;0.80;;;14.00;99.90;;;;;;4997381;28;21213;-75
2023/03/23 03:44:33;;;;;;;1.50;0.80;;;14.00;99.90;;;;;;4997579;28;20600;-74
2023/03/23 03:46:59;;;;;;;2.05;0.70;;;14.00;99.90;;;;;;5013201;28;20620;-75
2023/03/23 03:49:26;;;;;;;1.93;0.77;;;14.10;99.90;;;;;;5013366;28;20174;-75
2023/03/23 03:51:53;;;;;;;1.33;0.60;;;14.10;99.90;;;;;;4996586;28;20629;-75
2023/03/23 03:54:24;;;;;;;1.70;0.80;;;14.00;99.90;;;;;;5013799;28;20581;-75
2023/03/23 03:56:51;;;;;;;3.87;0.80;;;14.10;99.90;;;;;;5013102;28;20578;-74
2023/03/23 03:59:43;;;;;;;1.83;0.70;;;14.10;99.90;;;;;;5012659;28;20588;-74
2023/03/23 04:02:13;;;;;;;2.33;0.70;;;14.10;99.90;;;;;;5014210;28;20664;-74
2023/03/23 04:04:40;;;;;;;1.48;0.70;;;14.10;99.90;;;;;;4982343;28;20219;-74
2023/03/23 04:07:05;;;;;;;1.60;0.70;;;14.10;99.90;;;;;;5014900;28;20265;-74
2023/03/23 04:09:31;;;;;;;1.33;0.70;;;14.10;99.90;;;;;;5013074;28;20688;-74
2023/03/23 04:11:58;;;;;;;1.57;0.70;;;14.10;99.90;;;;;;5012883;28;20194;-75
2023/03/23 04:14:42;;;;;;;1.57;0.70;;;14.10;99.90;;;;;;5014394;28;20671;-74
2023/03/23 04:17:11;;;;;;;1.60;0.63;;;14.10;99.90;;;;;;5017930;28;20616;-75
2023/03/23 04:19:37;;;;;;;1.70;0.70;;;14.20;99.90;;;;;;5022171;28;20603;-75
2023/03/23 04:22:05;;;;;;;1.30;0.67;;;14.10;99.90;;;;;;5008956;28;20675;-75
2023/03/23 04:24:35;;;;;;;1.47;0.80;;;14.20;99.90;;;;;;4996370;28;20955;-75
2023/03/23 04:27:03;;;;;;;1.40;0.70;;;14.20;99.90;;;;;;5013199;28;20616;-75
2023/03/23 04:29:30;;;;;;;1.70;1.10;;;14.20;99.90;;;;;;5012881;28;20791;-74
2023/03/23 04:32:14;;;;;;;1.60;0.77;;;14.20;99.90;;;;;;5013931;28;20561;-74
2023/03/23 04:34:46;;;;;;;2.23;1.00;;;14.20;99.90;;;;;;5010395;23;20616;-74
2023/03/23 04:37:13;;;;;;;1.70;0.80;;;14.20;99.90;;;;;;4991927;28;20590;-75
2023/03/23 04:39:39;;;;;;;1.77;0.73;;;14.20;99.90;;;;;;4968447;28;20583;-75
2023/03/23 04:42:06;;;;;;;1.73;0.80;;;14.20;99.90;;;;;;4991852;28;20262;-75
2023/03/23 04:44:54;;;;;;;1.60;0.70;;;14.20;99.90;;;;;;4988715;28;20630;-75
2023/03/23 04:47:39;;;;;;;1.77;0.82;;;14.20;99.90;;;;;;4976060;28;20684;-75
2023/03/23 04:50:11;;;;;;;1.50;0.80;;;14.20;99.90;;;;;;4979147;28;20195;-75
2023/03/23 04:52:44;;;;;;;1.55;0.80;;;14.20;99.90;;;;;;4981726;28;20591;-75
2023/03/23 04:55:13;;;;;;;2.83;0.70;;;14.20;99.90;;;;;;4987704;28;20202;-75
2023/03/23 04:57:42;;;;;;;1.40;0.80;;;14.20;99.90;;;;;;4968221;28;20597;-75
2023/03/23 05:00:32;;;;;;;2.80;0.90;;;14.30;99.90;;;;;;4986666;28;20599;-75
2023/03/23 05:02:58;;;;;;;1.50;0.70;;;14.30;99.90;;;;;;4952887;28;20595;-75
2023/03/23 05:05:30;;;;;;;2.57;1.10;;;14.30;99.90;;;;;;4964172;28;20622;-76
2023/03/23 05:07:56;;;;;;;1.73;0.80;;;14.30;99.90;;;;;;4980433;28;20611;-75
2023/03/23 05:10:25;;;;;;;1.63;1.00;;;14.30;99.90;;;;;;4980584;28;20307;-75
2023/03/23 05:12:54;;;;;;;2.93;1.07;;;14.40;99.90;;;;;;4970570;28;21219;-75
2023/03/23 05:15:20;;;;;;;1.30;0.77;;;14.40;99.90;;;;;;4972932;28;20619;-75
2023/03/23 05:17:46;;;;;;;1.70;1.23;;;14.40;99.90;;;;;;4984037;28;20642;-74
2023/03/23 05:20:22;;;;;;;1.20;0.60;;;14.50;99.90;;;;;;4983827;28;20603;-74
2023/03/23 05:22:50;;;;;;;1.50;0.90;;;14.50;99.90;;;;;;4974265;28;20610;-76
2023/03/23 05:25:22;;;;;;;1.57;0.80;;;14.50;99.90;;;;;;4970750;28;20657;-76
2023/03/23 05:27:59;;;;;;;2.20;0.77;;;14.50;99.90;;;;;;4975576;28;20597;-75
2023/03/23 05:30:50;;;;;;;1.20;0.60;;;14.50;99.90;;;;;;4991715;28;20827;-76
2023/03/23 05:33:18;;;;;;;1.40;0.77;;;14.50;99.90;;;;;;4991784;28;20617;-76
2023/03/23 05:35:51;;;;;;;2.50;1.03;;;14.60;99.90;;;;;;4975810;28;20634;-76
2023/03/23 05:38:23;;;;;;;1.50;0.77;;;14.60;99.90;;;;;;4991281;28;20927;-76
2023/03/23 05:40:49;;;;;;;1.33;0.70;;;14.60;99.90;;;;;;4991765;28;20590;-76
2023/03/23 05:43:18;;;;;;;1.80;0.80;;;14.60;99.90;;;;;;4991288;28;20597;-75
2023/03/23 05:46:04;;;;;;;3.53;1.70;;;14.70;99.90;;;;;;5005275;28;20765;-74
2023/03/23 05:48:31;;;;;;;1.97;0.80;;;14.70;99.90;;;;;;4974743;28;20579;-74
2023/03/23 05:50:57;;;;;;;3.20;1.20;;;14.70;99.90;;;;;;4975367;28;20637;-75
2023/03/23 05:53:24;;;;;;;1.77;0.90;;;14.70;99.90;;;;;;4991184;28;20571;-75
2023/03/23 05:55:51;;;;;;;2.17;1.10;;;14.70;99.90;;;;;;4975527;28;20594;-73
2023/03/23 05:58:30;;;;;;;1.73;1.03;;;14.70;99.90;;;;;;4974818;28;21256;-75
2023/03/23 06:00:56;;;;;;;1.90;1.20;;;14.80;99.90;;;;;;4958919;28;20692;-75
2023/03/23 06:03:27;;;;;;;2.30;0.90;;;14.80;99.90;;;;;;4991584;28;20186;-76
2023/03/23 06:06:00;;;;;;;1.60;1.00;;;14.80;99.90;;;;;;4991079;28;20618;-76
2023/03/23 06:08:36;;;;;;;2.00;0.80;;;14.80;99.90;;;;;;4985016;28;20623;-75
2023/03/23 06:11:04;;;;;;;3.03;1.00;;;14.80;99.90;;;;;;4982731;28;20629;-76
2023/03/23 06:13:33;;;;;;;2.40;1.27;;;14.80;99.90;;;;;;4974840;28;20574;-75
2023/03/23 06:16:05;;;;;;;1.80;1.00;;;14.80;99.90;;;;;;4990851;28;20650;-76
2023/03/23 06:18:49;;;;;;;2.93;1.30;;;14.80;99.90;;;;;;4991070;28;20586;-76
2023/03/23 06:21:35;;;;;;;2.23;0.80;;;14.90;99.90;;;;;;4967812;28;20590;-76
2023/03/23 06:24:18;;;;;;;3.40;1.00;;;14.90;99.90;;;;;;4975008;28;20583;-76
2023/03/23 06:26:44;;;;;;;3.47;0.90;;;14.90;99.90;;;;;;4990509;28;20628;-75
2023/03/23 06:29:15;;;;;;;5.37;1.00;;;15.00;99.90;;;;;;4974583;28;20211;-76
2023/03/23 06:31:52;;;;;;;1.93;0.80;;;15.00;99.90;;;;;;4991025;28;20574;-76
2023/03/23 06:34:18;;;;;;;3.80;1.03;;;15.10;99.90;;;;;;4974402;28;20923;-76
2023/03/23 06:37:02;;;;;;;1.97;0.80;;;15.10;99.90;;;;;;4977463;28;20630;-76
2023/03/23 06:39:45;;;;;;;2.67;1.10;;;15.20;99.90;;;;;;4990335;28;20676;-76
2023/03/23 06:42:34;;;;;;;7.20;1.20;;;15.30;99.90;;;;;;4991958;28;20602;-76
2023/03/23 06:45:25;;;;;;;2.53;1.00;;;15.30;99.90;;;;;;5005556;28;20996;-76
2023/03/23 06:48:10;;;;;;;5.50;0.90;;;15.40;99.90;;;;;;4990216;28;20609;-76
2023/03/23 06:50:36;;;;;;;3.20;0.80;;;15.40;99.90;;;;;;4990158;28;20688;-76
2023/03/23 06:53:03;;;;;;;2.90;0.97;;;15.40;99.90;;;;;;4973982;28;20677;-76
2023/03/23 06:55:29;;;;;;;3.57;1.47;;;15.50;99.90;;;;;;4973605;28;21231;-76
2023/03/23 06:57:54;;;;;;;1.93;0.90;;;15.60;99.90;;;;;;4974171;28;20677;-76
2023/03/23 07:00:20;;;;;;;3.70;1.10;;;15.70;99.90;;;;;;4973770;28;20532;-76
2023/03/23 07:02:46;;;;;;;2.13;1.00;;;15.80;99.90;;;;;;4990473;28;20187;-76
2023/03/23 07:05:12;;;;;;;2.80;1.00;;;15.80;99.90;;;;;;4972948;28;20634;-76
2023/03/23 07:07:40;;;;;;;3.10;0.90;;;15.90;99.90;;;;;;4965107;28;20196;-76
2023/03/23 07:10:26;;;;;;;4.00;1.00;;;15.90;99.90;;;;;;4991251;28;20657;-76
2023/03/23 07:12:52;;;;;;;2.20;0.97;;;15.90;99.90;;;;;;4961711;28;20591;-75
2023/03/23 07:15:18;;;;;;;2.40;1.10;;;15.90;99.90;;;;;;4970740;28;21196;-76
2023/03/23 07:17:49;;;;;;;3.13;1.03;;;16.00;99.90;;;;;;4971643;28;21202;-76
2023/03/23 07:20:21;;;;;;;7.67;1.10;;;16.00;99.90;;;;;;4958033;28;20666;-76
2023/03/23 07:22:47;;;;;;;2.70;0.80;;;16.00;99.90;;;;;;4989332;28;20782;-75
2023/03/23 07:25:26;;;;;;;1.80;1.00;;;16.00;99.90;;;;;;4974083;28;21229;-75
2023/03/23 07:27:55;;;;;;;3.53;0.80;;;16.00;99.90;;;;;;4973564;28;20582;-76
2023/03/23 07:30:20;;;;;;;4.80;1.20;;;16.10;99.90;;;;;;4990367;28;20681;-76
2023/03/23 07:32:46;;;;;;;2.37;0.87;;;16.10;99.90;;;;;;4991546;28;20935;-76
2023/03/23 07:35:12;;;;;;;4.80;1.03;;;16.20;99.90;;;;;;4989417;28;20209;-77
2023/03/23 07:37:53;;;;;;;3.13;1.00;;;16.20;99.90;;;;;;4990370;28;20601;-76
2023/03/23 07:40:20;;;;;;;2.33;1.00;;;16.30;99.90;;;;;;4973427;28;20586;-76
2023/03/23 07:42:57;;;;;;;3.10;1.00;;;16.30;99.90;;;;;;4973790;28;20598;-76
2023/03/23 07:45:32;;;;;;;2.40;0.80;;;16.30;99.90;;;;;;4966533;28;20626;-75
2023/03/23 07:47:58;;;;;;;3.60;0.90;;;16.30;99.90;;;;;;4956361;28;21014;-76
2023/03/23 07:50:25;;;;;;;3.10;0.90;;;16.40;99.90;;;;;;4972843;28;20646;-75
2023/03/23 07:52:57;;;;;;;3.23;0.87;;;16.40;99.90;;;;;;4963420;28;20203;-75
2023/03/23 07:55:25;;;;;;;2.60;0.80;;;16.50;99.90;;;;;;4954292;28;20627;-75
2023/03/23 07:58:04;;;;;;;2.27;0.90;;;16.50;99.90;;;;;;4970342;28;20604;-76
2023/03/23 08:00:32;;;;;;;2.40;0.87;;;16.60;99.90;;;;;;4970266;28;20965;-76
2023/03/23 08:03:02;;;;;;;5.23;1.00;;;16.60;99.90;;;;;;4961392;28;20629;-76
2023/03/23 08:05:42;;;;;;;3.93;1.00;;;16.70;99.90;;;;;;4987889;28;20642;-76
2023/03/23 08:08:26;;;;;;;4.43;0.90;;;16.70;99.90;;;;;;4989266;28;20590;-76
2023/03/23 08:11:30;;;;;;;1.97;0.93;;;16.80;99.90;;;;;;4988476;28;20645;-77
2023/03/23 08:14:22;;;;;;;2.00;0.80;;;16.80;99.90;;;;;;4967359;28;21250;-76
2023/03/23 08:17:17;;;;;;;2.40;0.80;;;16.90;99.90;;;;;;4986210;28;21153;-76
2023/03/23 08:19:56;;;;;;;1.60;0.80;;;17.00;99.90;;;;;;4985907;28;20719;-75
2023/03/23 08:22:56;;;;;;;2.77;1.30;;;17.10;99.90;;;;;;4955308;28;20659;-75
2023/03/23 08:26:01;;;;;;;2.90;0.80;;;17.10;99.90;;;;;;4959903;28;20639;-75
2023/03/23 08:28:47;;;;;;;2.47;0.80;;;17.20;99.90;;;;;;4950328;28;20592;-75
2023/03/23 08:31:16;;;;;;;2.67;0.93;;;17.20;99.90;;;;;;4953917;28;21258;-75
2023/03/23 08:33:57;;;;;;;2.07;1.00;;;17.20;99.90;;;;;;4938818;29;20615;-76
2023/03/23 08:36:44;;;;;;;2.77;0.80;;;17.30;99.90;;;;;;4969976;28;20631;-75
2023/03/23 08:39:24;;;;;;;2.53;1.00;;;17.30;99.90;;;;;;4954319;29;20588;-76
2023/03/23 08:41:59;;;;;;;4.80;0.87;;;17.40;99.90;;;;;;4969995;28;20647;-75
2023/03/23 08:44:58;;;;;;;1.80;0.70;;;17.50;99.90;;;;;;4953471;29;20608;-76
2023/03/23 08:47:42;;;;;;;3.37;0.90;;;17.50;99.90;;;;;;4969909;28;20643;-76
2023/03/23 08:50:30;;;;;;;2.37;0.80;;;17.60;99.90;;;;;;4954219;29;20643;-76
2023/03/23 08:53:09;;;;;;;2.30;1.00;;;17.60;99.90;;;;;;4937704;29;20576;-76
2023/03/23 08:56:09;;;;;;;3.83;1.00;;;17.60;99.90;;;;;;4953842;29;20770;-75
2023/03/23 08:59:13;;;;;;;2.53;0.90;;;17.70;99.90;;;;;;4948567;28;20615;-75
2023/03/23 09:01:58;;;;;;;2.97;0.80;;;17.70;99.90;;;;;;4971845;28;20629;-76
2023/03/23 09:04:42;;;;;;;2.30;0.70;;;17.70;99.90;;;;;;4976129;28;20660;-75
2023/03/23 09:07:28;;;;;;;5.80;1.00;;;17.70;99.90;;;;;;4960775;28;20702;-75
2023/03/23 09:09:53;;;;;;;4.40;1.00;;;17.80;99.90;;;;;;4982115;28;21260;-75
2023/03/23 09:12:19;;;;;;;3.03;0.70;;;17.80;99.90;;;;;;4980960;28;20259;-76
2023/03/23 09:14:45;;;;;;;1.50;0.70;;;17.80;99.90;;;;;;4963815;28;20691;-75
2023/03/23 09:17:11;;;;;;;3.43;0.80;;;17.80;99.90;;;;;;4988088;28;20677;-75
2023/03/23 09:19:37;;;;;;;1.97;0.60;;;17.90;99.90;;;;;;4981171;28;20686;-74
2023/03/23 09:22:03;;;;;;;2.33;0.70;;;17.90;99.90;;;;;;4974775;28;20203;-74
2023/03/23 09:24:30;;;;;;;2.70;0.90;;;18.00;99.90;;;;;;4984024;28;20666;-74
2023/03/23 09:26:58;;;;;;;7.57;1.30;;;18.10;99.90;;;;;;4980176;28;20622;-74
2023/03/23 09:29:25;;;;;;;4.83;1.10;;;18.20;99.90;;;;;;4986697;28;20599;-74
2023/03/23 09:31:50;;;;;;;2.23;0.73;;;18.30;99.90;;;;;;4984045;28;20601;-74
2023/03/23 09:34:16;;;;;;;3.70;0.83;;;18.40;99.90;;;;;;4982500;28;20953;-79
2023/03/23 09:36:45;;;;;;;2.40;0.77;;;18.50;99.90;;;;;;4984589;28;20238;-79
2023/03/23 09:39:12;;;;;;;3.27;0.80;;;18.70;99.90;;;;;;4972388;28;20647;-79
2023/03/23 09:42:21;;;;;;;1.97;0.70;;;18.80;99.90;;;;;;4982335;28;20993;-78
2023/03/23 09:45:36;;;;;;;2.60;0.80;;;18.90;99.90;;;;;;4985480;28;20599;-78
2023/03/23 09:48:26;;;;;;;3.37;0.73;;;19.00;99.90;;;;;;4973326;28;21216;-78
2023/03/23 09:51:00;;;;;;;2.33;0.73;;;19.10;99.90;;;;;;4984813;28;20681;-78
2023/03/23 09:53:38;;;;;;;3.73;1.53;;;19.20;99.90;;;;;;4988980;28;21148;-78
2023/03/23 09:56:11;;;;;;;3.73;0.90;;;19.20;99.90;;;;;;4973914;28;20607;-78
2023/03/23 09:58:50;;;;;;;2.47;1.13;;;19.20;99.90;;;;;;4977450;28;20955;-75
2023/03/23 10:01:36;;;;;;;3.40;0.83;;;19.20;99.90;;;;;;4983384;28;20610;-75
2023/03/23 10:04:12;;;;;;;2.27;1.00;;;19.10;99.90;;;;;;4991140;28;21002;-75
2023/03/23 10:06:38;;;;;;;3.73;0.70;;;19.00;99.90;;;;;;4984479;28;20657;-75
2023/03/23 10:09:05;;;;;;;2.60;0.90;;;19.00;99.90;;;;;;4991277;28;20919;-75
2023/03/23 10:11:54;;;;;;;2.43;0.70;;;19.00;99.90;;;;;;4990338;28;20736;-75
2023/03/23 10:14:44;;;;;;;2.63;0.67;;;19.00;99.90;;;;;;4992666;28;21110;-75
2023/03/23 10:17:20;;;;;;;2.60;0.60;;;19.00;99.90;;;;;;4992246;28;20582;-75
2023/03/23 10:19:59;;;;;;;2.60;1.27;;;19.10;99.90;;;;;;4989449;28;20587;-75
2023/03/23 10:22:55;;;;;;;4.77;1.10;;;19.30;99.90;;;;;;5005591;28;20629;-75
2023/03/23 10:25:26;;;;;;;2.93;0.80;;;19.50;99.90;;;;;;4991035;28;20621;-76
2023/03/23 10:28:17;;;;;;;1.77;0.60;;;19.70;99.90;;;;;;4974447;28;20942;-75
2023/03/23 10:30:52;;;;;;;2.53;0.70;;;19.80;99.90;;;;;;4992406;28;20736;-75
2023/03/23 10:33:37;;;;;;;1.80;0.60;;;19.80;99.90;;;;;;4991659;28;20601;-74
2023/03/23 10:36:14;;;;;;;2.03;0.70;;;19.70;99.90;;;;;;4991056;28;21037;-74
2023/03/23 10:38:53;;;;;;;3.20;0.80;;;19.60;99.90;;;;;;4990560;28;20586;-74
2023/03/23 10:41:20;;;;;;;2.93;0.70;;;19.50;99.90;;;;;;4992031;28;20613;-75
2023/03/23 10:43:49;;;;;;;1.73;0.60;;;19.30;99.90;;;;;;4989545;28;20585;-74
2023/03/23 10:46:39;;;;;;;2.43;0.60;;;19.10;99.90;;;;;;4990708;28;20621;-75
2023/03/23 10:49:12;;;;;;;2.10;0.60;;;19.00;99.90;;;;;;4990071;28;20621;-75
2023/03/23 10:51:41;;;;;;;1.77;0.60;;;18.80;99.90;;;;;;4978638;28;20663;-75
2023/03/23 10:54:07;;;;;;;1.70;0.80;;;18.70;99.90;;;;;;4991644;28;20592;-75
2023/03/23 10:56:44;;;;;;;2.07;0.70;;;18.60;99.90;;;;;;4992378;28;20642;-75
2023/03/23 10:59:34;;;;;;;1.93;0.80;;;18.50;99.90;;;;;;4973697;28;20581;-76
2023/03/23 11:02:03;;;;;;;1.40;0.50;;;18.40;99.90;;;;;;4990974;28;20574;-76
2023/03/23 11:04:31;;;;;;;1.97;0.57;;;18.40;99.90;;;;;;4992127;28;20583;-76
2023/03/23 11:07:02;;;;;;;1.50;0.60;;;18.30;99.90;;;;;;4990458;28;20613;-75
2023/03/23 11:09:50;;;;;;;1.47;0.53;;;18.30;99.90;;;;;;4987544;28;20660;-74
2023/03/23 11:12:18;;;;;;;1.73;0.60;;;18.30;99.90;;;;;;4991309;22;20651;-79
2023/03/23 11:14:45;;;;;;;2.27;0.70;;;18.30;99.90;;;;;;4991798;28;20590;-79
2023/03/23 11:17:40;;;;;;;2.63;0.70;;;18.30;99.90;;;;;;4991180;28;20621;-79
2023/03/23 11:20:13;;;;;;;1.60;0.60;;;18.30;99.90;;;;;;4972173;28;20586;-79
2023/03/23 11:22:38;;;;;;;1.73;0.50;;;18.40;99.90;;;;;;4986854;28;20705;-79
2023/03/23 11:25:05;;;;;;;1.77;0.63;;;18.50;99.90;;;;;;4955265;28;20690;-79
2023/03/23 11:27:33;;;;;;;1.97;0.60;;;18.50;99.90;;;;;;4971943;28;20176;-79
2023/03/23 11:30:18;;;;;;;2.30;0.63;;;18.60;99.90;;;;;;4970963;28;20663;-80
2023/03/23 11:32:46;;;;;;;2.40;0.50;;;18.60;99.90;;;;;;4972389;28;20701;-79
2023/03/23 11:35:19;;;;;;;1.87;0.50;;;18.60;99.90;;;;;;4987045;28;20586;-79
2023/03/23 11:37:52;;;;;;;2.33;0.60;;;18.60;99.90;;;;;;4971334;28;20650;-80
2023/03/23 11:40:25;;;;;;;1.30;0.50;;;18.60;99.90;;;;;;4973575;28;20595;-80
2023/03/23 11:43:07;;;;;;;1.50;0.60;;;18.60;99.90;;;;;;4970972;28;20630;-80
2023/03/23 11:45:40;;;;;;;1.73;0.60;;;18.60;99.90;;;;;;4972021;28;20575;-79
2023/03/23 11:48:28;;;;;;;1.93;0.60;;;18.60;99.90;;;;;;4990306;28;20595;-79
2023/03/23 11:51:03;;;;;;;2.00;0.70;;;18.50;99.90;;;;;;4991175;28;20724;-79
2023/03/23 11:53:59;;;;;;;1.70;0.60;;;18.40;99.90;;;;;;4991832;28;20967;-79
2023/03/23 11:56:39;;;;;;;1.57;0.60;;;18.30;99.90;;;;;;4992281;28;20616;-79
2023/03/23 11:59:15;;;;;;;1.90;0.53;;;18.10;99.90;;;;;;4994042;28;20632;-80
2023/03/23 12:02:12;;;;;;;1.20;0.47;;;17.80;99.90;;;;;;4977328;28;20656;-81
2023/03/23 12:04:57;;;;;;;1.90;0.50;;;17.60;99.90;;;;;;4994084;28;20701;-79
2023/03/23 12:07:48;;;;;;;1.20;0.50;;;17.60;99.90;;;;;;4994813;28;21019;-79
2023/03/23 12:10:19;;;;;;;1.30;0.50;;;17.60;99.90;;;;;;5009884;28;20696;-78
2023/03/23 12:12:56;;;;;;;2.10;0.70;;;17.60;99.90;;;;;;4992486;28;20644;-79
2023/03/23 12:15:37;;;;;;;1.30;0.63;;;17.70;99.90;;;;;;4994104;28;20590;-79
2023/03/23 12:18:32;;;;;;;1.57;0.60;;;17.80;99.90;;;;;;5011318;28;20648;-77
2023/03/23 12:21:30;;;;;;;2.73;0.60;;;17.90;99.90;;;;;;5009082;28;20606;-78
2023/03/23 12:24:08;;;;;;;1.97;0.60;;;18.00;99.90;;;;;;4994552;28;21033;-78
2023/03/23 12:27:17;;;;;;;2.20;0.70;;;18.30;99.90;;;;;;4993584;28;20656;-79
2023/03/23 12:30:11;;;;;;;2.60;0.60;;;18.60;99.90;;;;;;4969865;28;20680;-78
2023/03/23 12:32:53;;;;;;;2.03;0.43;;;19.20;99.90;;;;;;4993282;28;20633;-79
2023/03/23 12:35:23;;;;;;;2.00;0.80;;;19.80;99.90;;;;;;4994490;28;20604;-79
2023/03/23 12:38:07;;;;;;;1.90;0.53;;;20.20;99.90;;;;;;4994252;28;20598;-78
2023/03/23 12:40:52;;;;;;;1.30;0.50;;;20.60;99.90;;;;;;5009727;28;20606;-79
2023/03/23 12:43:47;;;;;;;1.43;0.60;;;20.80;99.90;;;;;;4993986;28;20625;-78
2023/03/23 12:46:33;;;;;;;1.93;0.70;;;20.80;99.90;;;;;;4981589;28;20598;-79
2023/03/23 12:49:29;;;;;;;1.60;0.60;;;20.80;99.90;;;;;;5009349;28;20602;-79
2023/03/23 12:52:11;;;;;;;2.47;0.73;;;20.70;99.90;;;;;;5009184;28;20641;-80
2023/03/23 12:54:51;;;;;;;1.63;0.70;;;20.60;99.90;;;;;;4995462;28;20590;-79
2023/03/23 12:57:30;;;;;;;1.60;0.60;;;20.40;99.90;;;;;;4992947;28;21028;-79
2023/03/23 13:00:12;;;;;;;2.40;0.93;;;20.30;99.90;;;;;;4975843;28;20644;-79
2023/03/23 13:02:58;;;;;;;1.30;0.60;;;20.10;99.90;;;;;;4993951;28;20695;-79
2023/03/23 13:05:24;;;;;;;3.80;1.27;;;20.10;99.90;;;;;;4976107;28;20582;-78
2023/03/23 13:07:58;;;;;;;3.00;0.70;;;20.00;99.90;;;;;;4993091;28;20737;-79
2023/03/23 13:10:41;;;;;;;1.63;0.70;;;20.00;99.90;;;;;;4993768;28;20660;-81
2023/03/23 13:13:41;;;;;;;1.70;0.63;;;20.00;99.90;;;;;;4993740;28;20609;-79
2023/03/23 13:16:12;;;;;;;1.53;0.60;;;20.10;99.90;;;;;;4979587;28;21167;-78
2023/03/23 13:18:59;;;;;;;2.43;0.70;;;20.10;99.90;;;;;;4992609;28;20633;-78
2023/03/23 13:21:31;;;;;;;2.33;0.60;;;20.10;99.90;;;;;;4991889;28;20603;-78
2023/03/23 13:24:08;;;;;;;3.00;0.70;;;20.00;99.90;;;;;;4976291;28;20602;-78
2023/03/23 13:26:40;;;;;;;1.97;0.60;;;20.00;99.90;;;;;;5008503;28;20611;-77
2023/03/23 13:29:14;;;;;;;3.00;0.70;;;19.90;99.90;;;;;;4992439;28;20602;-78